Time;durP1;ratioP1;P1;durP2;ratioP2;P2;SDS_P1;SDS_P2;PMS_P1;PMS_P2;Temp;Humidity;BMP_temperature;BMP_pressure;BME280_temperature;BME280_humidity;BME280_pressure;Samples;Min_cycle;Max_cycle;Signal;HPM_P1;HPM_P2
2022/08/07 00:01:05;;;;;;;0.70;0.25;;;13.60;99.90;;;;;;5053155;28;20031;-78
2022/08/07 00:03:32;;;;;;;0.90;0.40;;;13.60;99.90;;;;;;5059903;28;20067;-78
2022/08/07 00:05:58;;;;;;;0.90;0.40;;;13.50;99.90;;;;;;5035970;28;20082;-78
2022/08/07 00:08:23;;;;;;;0.90;0.25;;;13.50;99.90;;;;;;5067851;28;20052;-78
2022/08/07 00:10:50;;;;;;;0.68;0.30;;;13.50;99.90;;;;;;5067164;28;20070;-78
2022/08/07 00:13:17;;;;;;;1.00;0.60;;;13.40;99.90;;;;;;5066600;28;20111;-78
2022/08/07 00:15:42;;;;;;;0.93;0.30;;;13.40;99.90;;;;;;5032261;28;20029;-78
2022/08/07 00:18:08;;;;;;;0.98;0.30;;;13.40;99.90;;;;;;5033138;28;20504;-78
2022/08/07 00:20:36;;;;;;;2.08;0.30;;;13.40;99.90;;;;;;5053614;28;20116;-78
2022/08/07 00:23:02;;;;;;;1.13;0.30;;;13.30;99.90;;;;;;5051137;28;20415;-78
2022/08/07 00:25:27;;;;;;;2.22;0.40;;;13.20;99.90;;;;;;5066738;28;20041;-78
2022/08/07 00:27:53;;;;;;;1.13;0.40;;;13.20;99.90;;;;;;5067728;28;20021;-78
2022/08/07 00:30:19;;;;;;;0.90;0.40;;;13.20;99.90;;;;;;5037099;28;20472;-78
2022/08/07 00:32:49;;;;;;;1.42;0.40;;;13.10;99.90;;;;;;5052897;28;20516;-78
2022/08/07 00:35:18;;;;;;;0.90;0.30;;;13.10;99.90;;;;;;5027749;28;20037;-78
2022/08/07 00:37:44;;;;;;;1.00;0.40;;;13.20;99.90;;;;;;5066611;28;20020;-77
2022/08/07 00:40:11;;;;;;;0.90;0.40;;;13.20;99.90;;;;;;5033400;28;20098;-77
2022/08/07 00:42:37;;;;;;;1.40;0.50;;;13.20;99.90;;;;;;5044703;28;20032;-78
2022/08/07 00:45:04;;;;;;;1.45;0.45;;;13.20;99.90;;;;;;5061461;28;20123;-78
2022/08/07 00:47:30;;;;;;;0.70;0.30;;;13.10;99.90;;;;;;5057874;28;20028;-78
2022/08/07 00:49:56;;;;;;;1.00;0.30;;;13.10;99.90;;;;;;5036070;28;20496;-78
2022/08/07 00:52:22;;;;;;;1.27;0.40;;;13.10;99.90;;;;;;5051542;28;20056;-78
2022/08/07 00:54:48;;;;;;;1.08;0.40;;;13.10;99.90;;;;;;5047198;28;20100;-78
2022/08/07 00:57:15;;;;;;;1.63;0.40;;;13.10;99.90;;;;;;5046408;28;20136;-78
2022/08/07 00:59:41;;;;;;;2.05;0.50;;;13.10;99.90;;;;;;5064480;28;20024;-78
2022/08/07 01:02:08;;;;;;;1.27;0.40;;;13.00;99.90;;;;;;5052191;28;20531;-78
2022/08/07 01:04:34;;;;;;;1.30;0.50;;;13.00;99.90;;;;;;5050862;28;20064;-77
2022/08/07 01:07:00;;;;;;;1.80;0.50;;;12.90;99.90;;;;;;5065863;28;20017;-78
2022/08/07 01:09:27;;;;;;;2.13;0.40;;;12.90;99.90;;;;;;5051718;28;20519;-78
2022/08/07 01:11:53;;;;;;;1.38;0.50;;;12.90;99.90;;;;;;5066642;28;20032;-78
2022/08/07 01:14:22;;;;;;;1.60;0.47;;;12.80;99.90;;;;;;5066390;28;20056;-79
2022/08/07 01:16:49;;;;;;;2.25;0.50;;;12.80;99.90;;;;;;5043842;28;20027;-78
2022/08/07 01:19:19;;;;;;;1.20;0.50;;;12.80;99.90;;;;;;5047097;28;20044;-78
2022/08/07 01:21:49;;;;;;;1.10;0.40;;;12.70;99.90;;;;;;5034336;28;20032;-78
2022/08/07 01:24:16;;;;;;;1.23;0.50;;;12.70;99.90;;;;;;5051667;28;20052;-78
2022/08/07 01:26:42;;;;;;;1.08;0.50;;;12.70;99.90;;;;;;5039380;28;20052;-78
2022/08/07 01:29:10;;;;;;;2.08;0.73;;;12.70;99.90;;;;;;5050314;28;20048;-79
2022/08/07 01:31:37;;;;;;;1.52;0.60;;;12.60;99.90;;;;;;5046824;28;20114;-78
2022/08/07 01:34:04;;;;;;;1.20;0.40;;;12.60;99.90;;;;;;5033242;28;20028;-78
2022/08/07 01:36:34;;;;;;;1.48;0.50;;;12.60;99.90;;;;;;5033603;28;20031;-78
2022/08/07 01:39:04;;;;;;;1.88;0.65;;;12.50;99.90;;;;;;5064745;28;20762;-79
2022/08/07 01:41:31;;;;;;;1.30;0.50;;;12.60;99.90;;;;;;5047620;28;20125;-78
2022/08/07 01:44:01;;;;;;;1.90;0.60;;;12.50;99.90;;;;;;5046934;28;20445;-78
2022/08/07 01:46:27;;;;;;;1.50;0.50;;;12.60;99.90;;;;;;5027236;28;20477;-78
2022/08/07 01:48:53;;;;;;;1.30;0.50;;;12.50;99.90;;;;;;5066557;28;20016;-77
2022/08/07 01:51:23;;;;;;;1.40;0.50;;;12.50;99.90;;;;;;5065195;28;20036;-78
2022/08/07 01:53:56;;;;;;;1.40;0.50;;;12.50;99.90;;;;;;5050761;28;20036;-78
2022/08/07 01:56:32;;;;;;;1.58;0.55;;;12.50;99.90;;;;;;5034466;28;20029;-78
2022/08/07 01:59:04;;;;;;;1.33;0.52;;;12.40;99.90;;;;;;5045651;28;20040;-78
2022/08/07 02:01:35;;;;;;;1.50;0.60;;;12.40;99.90;;;;;;5049078;28;20029;-78
2022/08/07 02:04:07;;;;;;;1.55;0.50;;;12.40;99.90;;;;;;5048916;28;20033;-78
2022/08/07 02:06:36;;;;;;;2.00;0.68;;;12.50;99.90;;;;;;5044887;28;20027;-79
2022/08/07 02:09:08;;;;;;;1.40;0.50;;;12.50;99.90;;;;;;5025384;28;20028;-78
2022/08/07 02:11:40;;;;;;;1.95;0.63;;;12.40;99.90;;;;;;5034973;28;20027;-79
2022/08/07 02:14:08;;;;;;;1.50;0.50;;;12.40;99.90;;;;;;5049883;28;20052;-78
2022/08/07 02:16:37;;;;;;;1.60;0.60;;;12.30;99.90;;;;;;5034408;28;20025;-78
2022/08/07 02:19:06;;;;;;;2.35;0.60;;;12.40;99.90;;;;;;5049551;28;20431;-78
2022/08/07 02:21:36;;;;;;;1.58;0.70;;;12.40;99.90;;;;;;5027992;28;20450;-78
2022/08/07 02:24:04;;;;;;;1.50;0.50;;;12.40;99.90;;;;;;5050361;28;20036;-78
2022/08/07 02:26:31;;;;;;;1.23;0.47;;;12.40;99.90;;;;;;5050268;28;20043;-78
2022/08/07 02:28:57;;;;;;;1.40;0.60;;;12.30;99.90;;;;;;5044473;28;20116;-78
2022/08/07 02:31:24;;;;;;;2.03;0.70;;;12.20;99.90;;;;;;5051544;28;20025;-78
2022/08/07 02:33:51;;;;;;;2.35;0.70;;;12.20;99.90;;;;;;5050958;28;20048;-78
2022/08/07 02:36:18;;;;;;;1.30;0.50;;;12.20;99.90;;;;;;5032920;28;20032;-78
2022/08/07 02:38:45;;;;;;;1.70;0.70;;;12.10;99.90;;;;;;5050076;28;20384;-78
2022/08/07 02:41:13;;;;;;;1.50;0.57;;;12.20;99.90;;;;;;5032845;28;20381;-78
2022/08/07 02:43:41;;;;;;;2.75;0.70;;;12.20;99.90;;;;;;5043726;28;20021;-78
2022/08/07 02:46:08;;;;;;;1.50;0.60;;;12.10;99.90;;;;;;5042741;28;20123;-78
2022/08/07 02:48:35;;;;;;;2.90;0.65;;;12.10;99.90;;;;;;5034146;28;20025;-78
2022/08/07 02:51:11;;;;;;;1.92;0.65;;;12.10;99.90;;;;;;5032889;28;20029;-78
2022/08/07 02:53:40;;;;;;;1.40;0.70;;;12.10;99.90;;;;;;5050030;28;20016;-78
2022/08/07 02:56:17;;;;;;;2.00;0.70;;;12.10;99.90;;;;;;5046095;28;20032;-78
2022/08/07 02:58:43;;;;;;;1.70;0.60;;;12.10;99.90;;;;;;5034188;28;20025;-78
2022/08/07 03:01:10;;;;;;;2.00;0.80;;;12.00;99.90;;;;;;5050404;28;20432;-77
2022/08/07 03:03:37;;;;;;;2.03;0.68;;;12.00;99.90;;;;;;5033042;28;20113;-78
2022/08/07 03:06:04;;;;;;;1.58;0.70;;;12.00;99.90;;;;;;5046400;28;20028;-78
2022/08/07 03:08:30;;;;;;;2.03;0.65;;;12.00;99.90;;;;;;5029044;28;20400;-77
2022/08/07 03:10:59;;;;;;;2.28;0.70;;;12.10;99.90;;;;;;5049744;28;20035;-78
2022/08/07 03:13:30;;;;;;;1.50;0.65;;;11.90;99.90;;;;;;5049938;28;20021;-78
2022/08/07 03:15:56;;;;;;;1.65;0.80;;;12.00;99.90;;;;;;5032786;28;20028;-77
2022/08/07 03:18:24;;;;;;;1.90;0.80;;;11.90;99.90;;;;;;5036638;28;20036;-78
2022/08/07 03:20:50;;;;;;;2.00;0.82;;;11.90;99.90;;;;;;5046870;28;20082;-78
2022/08/07 03:23:17;;;;;;;2.17;0.80;;;11.90;99.90;;;;;;5048578;28;20047;-78
2022/08/07 03:25:45;;;;;;;2.63;0.82;;;11.90;99.90;;;;;;5051210;28;20492;-78
2022/08/07 03:28:15;;;;;;;2.53;0.90;;;11.80;99.90;;;;;;5051201;28;20110;-78
2022/08/07 03:30:42;;;;;;;3.08;1.13;;;11.80;99.90;;;;;;5046767;28;20054;-78
2022/08/07 03:33:09;;;;;;;2.45;1.13;;;11.60;99.90;;;;;;5047616;28;20031;-78
2022/08/07 03:35:39;;;;;;;1.98;1.00;;;11.70;99.90;;;;;;5042942;28;20468;-78
2022/08/07 03:38:08;;;;;;;2.42;1.20;;;11.70;99.90;;;;;;5068251;28;20024;-78
2022/08/07 03:40:35;;;;;;;1.85;0.75;;;11.60;99.90;;;;;;5050545;28;20427;-78
2022/08/07 03:43:02;;;;;;;2.60;1.00;;;11.60;99.90;;;;;;5046267;28;20036;-78
2022/08/07 03:45:32;;;;;;;1.73;0.88;;;11.60;99.90;;;;;;5066503;28;20124;-78
2022/08/07 03:48:06;;;;;;;3.33;1.10;;;11.50;99.90;;;;;;5062057;28;20060;-78
2022/08/07 03:50:34;;;;;;;2.78;1.15;;;11.50;99.90;;;;;;5035764;28;20508;-78
2022/08/07 03:53:00;;;;;;;2.30;0.82;;;11.50;99.90;;;;;;5053083;28;20366;-79
2022/08/07 03:55:28;;;;;;;3.95;1.25;;;11.50;99.90;;;;;;5053382;28;20094;-78
2022/08/07 03:57:56;;;;;;;4.18;1.42;;;11.50;99.90;;;;;;5030625;28;20032;-78
2022/08/07 04:00:23;;;;;;;2.60;0.93;;;11.50;99.90;;;;;;5030785;28;20492;-78
2022/08/07 04:02:50;;;;;;;2.30;1.15;;;11.50;99.90;;;;;;5053906;28;20021;-78
2022/08/07 04:05:24;;;;;;;2.15;1.00;;;11.50;99.90;;;;;;5053681;28;20043;-78
2022/08/07 04:07:50;;;;;;;2.70;1.23;;;11.60;99.90;;;;;;5051648;28;20013;-78
2022/08/07 04:10:20;;;;;;;5.68;1.23;;;11.60;99.90;;;;;;5047779;28;20032;-78
2022/08/07 04:12:48;;;;;;;1.92;1.00;;;11.50;99.90;;;;;;5037180;28;20028;-78
2022/08/07 04:15:15;;;;;;;3.22;1.17;;;11.60;99.90;;;;;;5052891;28;20060;-78
2022/08/07 04:17:43;;;;;;;2.10;0.70;;;11.50;99.90;;;;;;5048893;28;20074;-78
2022/08/07 04:20:11;;;;;;;3.88;1.30;;;11.60;99.90;;;;;;5046370;28;20057;-78
2022/08/07 04:22:39;;;;;;;3.10;1.15;;;11.50;99.90;;;;;;5048406;28;20465;-79
2022/08/07 04:25:07;;;;;;;3.58;0.90;;;11.60;99.90;;;;;;5046271;28;20036;-79
2022/08/07 04:27:33;;;;;;;3.80;1.27;;;11.60;99.90;;;;;;5032816;28;20428;-79
2022/08/07 04:29:59;;;;;;;2.83;1.38;;;11.50;99.90;;;;;;5049958;28;20033;-79
2022/08/07 04:32:31;;;;;;;2.38;1.27;;;11.60;99.90;;;;;;5046702;28;20465;-78
2022/08/07 04:34:57;;;;;;;3.10;1.23;;;11.60;99.90;;;;;;5065450;28;20029;-77
2022/08/07 04:37:23;;;;;;;2.55;1.13;;;11.60;99.90;;;;;;5052721;28;20249;-78
2022/08/07 04:39:51;;;;;;;2.70;0.98;;;11.60;99.90;;;;;;5052085;28;20051;-79
2022/08/07 04:42:17;;;;;;;3.40;2.05;;;11.70;99.90;;;;;;5049659;28;20048;-79
2022/08/07 04:44:44;;;;;;;4.03;2.30;;;11.70;99.90;;;;;;5046053;28;20033;-78
2022/08/07 04:47:21;;;;;;;2.78;1.45;;;11.70;99.90;;;;;;5050915;28;20598;-78
2022/08/07 04:50:12;;;;;;;6.57;3.40;;;11.80;99.90;;;;;;5066991;28;20021;-78
2022/08/07 04:53:03;;;;;;;3.97;2.13;;;11.80;99.90;;;;;;4994470;28;20480;-78
2022/08/07 04:55:45;;;;;;;3.13;1.77;;;11.80;99.90;;;;;;5033101;28;20024;-78
2022/08/07 04:58:30;;;;;;;5.57;2.95;;;11.90;99.90;;;;;;5048459;28;20086;-78
2022/08/07 05:01:13;;;;;;;5.13;3.45;;;11.90;99.90;;;;;;5045518;28;20031;-79
2022/08/07 05:04:14;;;;;;;5.82;3.30;;;11.90;99.90;;;;;;5042985;28;20029;-78
2022/08/07 05:07:18;;;;;;;3.45;1.83;;;12.00;99.90;;;;;;5040285;28;20515;-78
2022/08/07 05:09:57;;;;;;;4.60;2.30;;;12.10;99.90;;;;;;5048745;28;20136;-79
2022/08/07 05:12:28;;;;;;;5.72;3.15;;;12.20;99.90;;;;;;5045450;28;20077;-78
2022/08/07 05:15:14;;;;;;;4.43;3.15;;;12.20;99.90;;;;;;5030797;28;20112;-78
2022/08/07 05:17:44;;;;;;;3.67;2.42;;;12.20;99.90;;;;;;5030064;28;20086;-79
2022/08/07 05:20:16;;;;;;;4.38;2.38;;;12.30;99.90;;;;;;5044731;28;20052;-79
2022/08/07 05:22:45;;;;;;;3.05;1.98;;;12.30;99.90;;;;;;5045670;28;20787;-78
2022/08/07 05:25:14;;;;;;;4.80;3.10;;;12.40;99.90;;;;;;5033219;28;20585;-78
2022/08/07 05:27:41;;;;;;;4.50;2.90;;;12.40;99.90;;;;;;5044990;28;20436;-78
2022/08/07 05:30:08;;;;;;;4.88;2.53;;;12.40;99.90;;;;;;5023227;28;20052;-78
2022/08/07 05:32:35;;;;;;;5.53;3.90;;;12.50;99.90;;;;;;5032036;28;20102;-78
2022/08/07 05:35:02;;;;;;;8.20;4.82;;;12.60;99.90;;;;;;5050633;28;20032;-79
2022/08/07 05:37:30;;;;;;;9.07;5.50;;;12.60;99.90;;;;;;5023569;28;20028;-78
2022/08/07 05:40:02;;;;;;;9.10;5.65;;;12.60;99.90;;;;;;5027428;28;20456;-78
2022/08/07 05:42:29;;;;;;;7.03;5.30;;;12.70;99.90;;;;;;5024241;28;20037;-78
2022/08/07 05:44:55;;;;;;;9.48;6.28;;;12.70;99.90;;;;;;5018343;28;20091;-78
2022/08/07 05:47:22;;;;;;;20.83;6.13;;;12.80;99.90;;;;;;5030222;28;20052;-78
2022/08/07 05:49:50;;;;;;;6.53;4.38;;;12.90;99.90;;;;;;5018407;28;20033;-79
2022/08/07 05:52:18;;;;;;;4.50;3.22;;;13.00;99.90;;;;;;5018895;28;20108;-78
2022/08/07 05:54:44;;;;;;;7.85;3.53;;;13.00;99.90;;;;;;5028053;28;20029;-78
2022/08/07 05:57:14;;;;;;;5.47;3.30;;;13.10;99.90;;;;;;5018040;28;20032;-79
2022/08/07 05:59:42;;;;;;;4.53;2.53;;;13.20;99.90;;;;;;5010796;28;20028;-78
2022/08/07 06:02:12;;;;;;;3.53;2.40;;;13.30;99.90;;;;;;5029885;28;20057;-78
2022/08/07 06:04:51;;;;;;;4.18;2.85;;;13.40;99.90;;;;;;5011799;28;20076;-78
2022/08/07 06:07:18;;;;;;;5.40;2.47;;;13.60;99.90;;;;;;5029388;28;20029;-78
2022/08/07 06:09:44;;;;;;;3.35;1.75;;;13.70;99.90;;;;;;5033668;28;20031;-78
2022/08/07 06:12:10;;;;;;;3.40;2.15;;;13.80;99.90;;;;;;5047153;28;20021;-79
2022/08/07 06:14:36;;;;;;;4.78;2.45;;;14.00;99.90;;;;;;5045655;28;20071;-79
2022/08/07 06:17:04;;;;;;;3.67;2.17;;;14.20;99.90;;;;;;5020987;28;20052;-79
2022/08/07 06:19:34;;;;;;;4.03;2.50;;;14.30;99.90;;;;;;5023209;28;20099;-78
2022/08/07 06:22:00;;;;;;;5.30;2.60;;;14.50;99.90;;;;;;5031032;28;20544;-78
2022/08/07 06:24:28;;;;;;;3.65;2.47;;;14.60;99.90;;;;;;5028081;28;20037;-79
2022/08/07 06:26:54;;;;;;;4.00;1.88;;;14.90;99.90;;;;;;5020209;28;20032;-78
2022/08/07 06:29:28;;;;;;;3.80;2.28;;;15.10;99.90;;;;;;5024800;28;20038;-79
2022/08/07 06:31:54;;;;;;;4.88;2.95;;;15.30;99.90;;;;;;5031434;28;20181;-78
2022/08/07 06:34:24;;;;;;;3.83;3.00;;;15.40;99.90;;;;;;5035734;28;20034;-79
2022/08/07 06:36:50;;;;;;;5.53;2.22;;;15.70;99.90;;;;;;5039448;28;20025;-78
2022/08/07 06:39:16;;;;;;;3.55;2.03;;;16.00;99.90;;;;;;5045861;28;20103;-79
2022/08/07 06:41:46;;;;;;;3.22;2.47;;;16.20;99.90;;;;;;5042467;28;20025;-79
2022/08/07 06:44:13;;;;;;;5.20;3.03;;;16.40;99.90;;;;;;5029446;28;20067;-79
2022/08/07 06:46:40;;;;;;;4.63;3.10;;;16.20;99.90;;;;;;5031491;28;20124;-79
2022/08/07 06:49:06;;;;;;;7.28;3.92;;;16.30;99.90;;;;;;5029247;28;20524;-79
2022/08/07 06:51:37;;;;;;;3.75;2.17;;;16.40;99.90;;;;;;5031464;28;20047;-80
2022/08/07 06:54:07;;;;;;;4.72;3.83;;;16.70;99.90;;;;;;5049018;28;20056;-77
2022/08/07 06:56:38;;;;;;;4.53;3.28;;;16.50;99.90;;;;;;5027604;28;20039;-79
2022/08/07 06:59:10;;;;;;;3.80;2.70;;;16.80;99.90;;;;;;5028947;28;20420;-79
2022/08/07 07:01:42;;;;;;;3.25;2.38;;;17.10;99.90;;;;;;5027343;28;20116;-79
2022/08/07 07:04:08;;;;;;;4.10;2.60;;;17.40;99.90;;;;;;5031536;28;20063;-79
2022/08/07 07:06:34;;;;;;;3.42;1.90;;;17.60;99.90;;;;;;5047824;28;20021;-80
2022/08/07 07:09:23;;;;;;;3.75;2.33;;;17.80;99.90;;;;;;5049274;28;20123;-80
2022/08/07 07:12:07;;;;;;;3.40;2.03;;;18.10;99.90;;;;;;5048523;28;20025;-80
2022/08/07 07:14:46;;;;;;;4.15;1.80;;;18.10;99.90;;;;;;5044675;28;20035;-80
2022/08/07 07:17:27;;;;;;;3.63;2.22;;;18.10;99.90;;;;;;5048236;28;20039;-80
2022/08/07 07:19:58;;;;;;;5.10;3.63;;;18.20;99.90;;;;;;5046605;28;20036;-80
2022/08/07 07:22:25;;;;;;;3.47;2.80;;;18.20;99.90;;;;;;5028319;28;20044;-80
2022/08/07 07:24:52;;;;;;;5.13;2.47;;;18.30;99.90;;;;;;5021619;28;20040;-79
2022/08/07 07:27:20;;;;;;;3.85;1.88;;;18.40;99.90;;;;;;5028736;28;20029;-80
2022/08/07 07:29:50;;;;;;;3.47;1.90;;;18.70;99.90;;;;;;5040449;28;20052;-80
2022/08/07 07:32:17;;;;;;;2.95;1.92;;;19.00;99.90;;;;;;5040513;28;20029;-80
2022/08/07 07:34:46;;;;;;;2.15;1.33;;;19.30;99.90;;;;;;5040314;28;20037;-81
2022/08/07 07:37:13;;;;;;;3.03;1.83;;;19.30;99.90;;;;;;5041025;28;20025;-80
2022/08/07 07:39:40;;;;;;;2.85;1.50;;;19.40;99.90;;;;;;5046120;28;20319;-81
2022/08/07 07:42:08;;;;;;;3.15;1.05;;;19.70;99.90;;;;;;5041311;28;20099;-81
2022/08/07 07:44:37;;;;;;;2.10;0.95;;;19.90;99.90;;;;;;5021601;28;20038;-80
2022/08/07 07:47:04;;;;;;;2.33;0.80;;;20.10;99.90;;;;;;5042551;28;20380;-79
2022/08/07 07:49:31;;;;;;;2.47;0.80;;;20.00;99.90;;;;;;5040987;28;20040;-81
2022/08/07 07:51:58;;;;;;;2.67;0.90;;;20.10;99.90;;;;;;5026748;28;20060;-81
2022/08/07 07:54:26;;;;;;;1.90;1.00;;;20.00;99.90;;;;;;5040570;28;20029;-80
2022/08/07 07:56:55;;;;;;;3.15;1.45;;;19.70;99.90;;;;;;5037936;28;20063;-80
2022/08/07 07:59:21;;;;;;;3.88;1.40;;;19.90;99.90;;;;;;5039036;28;20032;-81
2022/08/07 08:01:49;;;;;;;3.10;1.00;;;19.70;99.90;;;;;;5038221;28;20028;-81
2022/08/07 08:04:17;;;;;;;2.80;1.38;;;19.70;99.90;;;;;;5044989;28;20037;-81
2022/08/07 08:06:44;;;;;;;4.95;1.35;;;19.80;99.90;;;;;;5022050;28;20420;-80
2022/08/07 08:09:11;;;;;;;3.00;1.27;;;20.00;99.90;;;;;;5037573;28;20044;-80
2022/08/07 08:11:37;;;;;;;3.10;1.50;;;20.10;99.90;;;;;;5044973;28;20481;-80
2022/08/07 08:14:03;;;;;;;4.00;1.20;;;20.20;99.90;;;;;;5034665;28;20037;-81
2022/08/07 08:16:41;;;;;;;2.10;0.70;;;20.20;99.90;;;;;;5041536;28;22287;-80
2022/08/07 08:19:09;;;;;;;1.42;0.50;;;20.50;99.90;;;;;;5036000;28;20128;-81
2022/08/07 08:27:23;;;;;;;1.95;0.80;;;20.10;99.90;;;;;;5034411;28;20036;-81
2022/08/07 08:30:00;;;;;;;3.30;1.20;;;20.40;99.90;;;;;;5041794;28;20055;-81
2022/08/07 08:32:30;;;;;;;2.20;0.70;;;20.50;99.90;;;;;;5053311;28;20021;-80
2022/08/07 08:34:58;;;;;;;1.92;0.50;;;20.60;99.90;;;;;;5041010;28;20517;-80
2022/08/07 08:37:28;;;;;;;2.65;0.50;;;21.20;99.90;;;;;;5038781;28;20301;-81
2022/08/07 08:39:55;;;;;;;3.17;0.60;;;21.50;99.90;;;;;;5035296;28;20476;-81
2022/08/07 08:42:30;;;;;;;2.95;0.50;;;21.50;99.90;;;;;;5035769;28;20033;-80
2022/08/07 08:45:26;;;;;;;2.50;0.40;;;21.20;99.90;;;;;;5035627;28;20382;-80
2022/08/07 08:48:07;;;;;;;0.80;0.30;;;21.50;99.90;;;;;;5039083;28;20029;-81
2022/08/07 08:51:00;;;;;;;0.90;0.40;;;22.10;99.90;;;;;;5027102;28;20052;-81
2022/08/07 08:53:31;;;;;;;0.88;0.40;;;21.90;99.90;;;;;;5029492;28;20150;-80
2022/08/07 08:56:10;;;;;;;1.45;0.40;;;21.50;99.90;;;;;;5021007;28;20021;-81
2022/08/07 08:58:49;;;;;;;4.28;0.30;;;21.70;99.90;;;;;;5038428;28;20025;-81
2022/08/07 09:01:36;;;;;;;2.55;0.40;;;21.60;99.90;;;;;;5040811;28;20029;-81
2022/08/07 09:04:29;;;;;;;1.92;0.40;;;21.70;99.90;;;;;;5041454;28;20041;-81
2022/08/07 09:07:15;;;;;;;1.13;0.30;;;21.60;99.90;;;;;;5038202;28;20342;-82
2022/08/07 09:10:06;;;;;;;2.25;0.30;;;21.40;99.90;;;;;;5035164;28;20727;-81
2022/08/07 09:12:50;;;;;;;0.73;0.20;;;21.40;99.90;;;;;;5035767;28;20532;-81
2022/08/07 09:15:58;;;;;;;1.25;0.30;;;21.70;99.90;;;;;;5039222;28;20171;-81
2022/08/07 09:18:49;;;;;;;0.73;0.20;;;21.80;99.90;;;;;;5040472;28;20060;-81
2022/08/07 09:21:26;;;;;;;1.52;0.40;;;22.10;99.90;;;;;;5035914;28;20084;-82
2022/08/07 09:24:13;;;;;;;1.35;0.30;;;22.40;99.90;;;;;;5034858;28;20381;-81
2022/08/07 09:26:56;;;;;;;0.80;0.20;;;22.20;99.90;;;;;;5039460;28;20037;-82
2022/08/07 09:29:32;;;;;;;1.17;0.40;;;22.40;99.90;;;;;;5037041;28;20037;-82
2022/08/07 09:32:24;;;;;;;1.30;0.30;;;21.90;99.90;;;;;;5035885;28;20420;-81
2022/08/07 09:35:00;;;;;;;1.00;0.20;;;22.30;99.90;;;;;;5038971;28;20487;-81
2022/08/07 09:37:39;;;;;;;1.27;0.13;;;22.70;99.90;;;;;;5038533;28;20102;-81
2022/08/07 09:40:18;;;;;;;0.43;0.20;;;23.20;99.90;;;;;;5033297;28;20045;-81
2022/08/07 09:43:13;;;;;;;0.50;0.20;;;24.00;99.90;;;;;;5017740;28;20107;-81
2022/08/07 09:46:05;;;;;;;0.52;0.15;;;24.20;99.90;;;;;;5034262;28;20041;-80
2022/08/07 09:48:54;;;;;;;0.85;0.20;;;24.30;99.90;;;;;;5020043;28;20038;-81
2022/08/07 09:51:35;;;;;;;0.30;0.10;;;24.30;99.90;;;;;;5039323;28;20060;-81
2022/08/07 09:54:05;;;;;;;1.48;0.20;;;24.40;99.90;;;;;;5041773;28;20071;-80
2022/08/07 09:57:20;;;;;;;0.85;0.20;;;23.80;99.90;;;;;;5032400;28;20516;-81
2022/08/07 10:00:08;;;;;;;0.50;0.20;;;24.30;99.90;;;;;;5035740;28;20025;-82
2022/08/07 10:02:51;;;;;;;0.77;0.20;;;24.10;99.90;;;;;;5023992;28;20029;-83
2022/08/07 10:05:55;;;;;;;1.30;0.20;;;23.40;99.90;;;;;;5033985;28;20047;-80
2022/08/07 10:08:47;;;;;;;0.60;0.20;;;23.70;99.90;;;;;;5020502;28;20040;-82
2022/08/07 10:11:24;;;;;;;1.38;0.30;;;24.30;99.90;;;;;;5024704;28;20052;-83
2022/08/07 10:14:19;;;;;;;1.02;0.30;;;23.80;99.90;;;;;;5022807;28;20021;-80
2022/08/07 10:17:00;;;;;;;0.50;0.20;;;23.10;99.90;;;;;;5015112;28;20527;-77
2022/08/07 10:19:44;;;;;;;0.88;0.20;;;24.10;99.90;;;;;;5017782;28;20060;-81
2022/08/07 10:22:56;;;;;;;0.20;0.10;;;24.50;99.90;;;;;;5033975;28;20489;-82
2022/08/07 10:25:33;;;;;;;0.63;0.20;;;24.90;99.90;;;;;;5035959;28;20059;-80
2022/08/07 10:28:29;;;;;;;1.23;0.30;;;24.40;99.90;;;;;;5037484;28;20375;-83
2022/08/07 10:31:33;;;;;;;0.95;0.13;;;24.00;99.90;;;;;;5034334;28;20071;-84
2022/08/07 10:34:24;;;;;;;0.73;0.20;;;25.00;99.90;;;;;;5017995;28;20048;-83
2022/08/07 10:37:17;;;;;;;2.55;0.28;;;24.00;99.90;;;;;;5017073;28;20051;-82
2022/08/07 10:39:57;;;;;;;0.70;0.30;;;24.10;99.90;;;;;;5017793;28;20111;-82
2022/08/07 10:42:53;;;;;;;1.33;0.30;;;24.30;99.90;;;;;;5012947;28;20045;-82
2022/08/07 10:45:32;;;;;;;1.30;0.28;;;24.20;99.90;;;;;;5009936;28;20489;-84
2022/08/07 10:48:22;;;;;;;0.80;0.30;;;24.00;99.90;;;;;;5015531;28;20386;-82
2022/08/07 10:51:09;;;;;;;0.85;0.20;;;23.70;99.90;;;;;;5011912;28;20474;-81
2022/08/07 10:53:57;;;;;;;0.70;0.20;;;24.70;99.90;;;;;;5016564;28;20025;-83
2022/08/07 10:56:47;;;;;;;2.95;0.30;;;24.20;99.90;;;;;;5013580;28;20176;-80
2022/08/07 10:59:49;;;;;;;0.75;0.20;;;24.00;99.90;;;;;;5001560;28;20030;-83
2022/08/07 11:02:30;;;;;;;0.80;0.20;;;24.70;99.90;;;;;;5015187;28;20038;-80
2022/08/07 11:05:24;;;;;;;0.50;0.10;;;25.20;99.90;;;;;;5015165;28;20073;-81
2022/08/07 11:08:01;;;;;;;3.65;0.10;;;26.30;99.90;;;;;;5014220;28;20084;-83
2022/08/07 11:10:54;;;;;;;1.45;0.20;;;26.30;99.90;;;;;;5016285;28;20045;-82
2022/08/07 11:13:38;;;;;;;1.10;0.20;;;26.00;99.90;;;;;;5015464;28;20038;-84
2022/08/07 11:16:08;;;;;;;0.55;0.10;;;26.20;99.90;;;;;;5014036;28;20143;-84
2022/08/07 11:18:43;;;;;;;0.60;0.10;;;26.40;99.90;;;;;;5006490;28;20060;-85
2022/08/07 11:21:24;;;;;;;2.83;0.25;;;25.80;99.90;;;;;;5021629;28;20033;-82
2022/08/07 11:24:29;;;;;;;1.00;0.10;;;24.90;99.90;;;;;;5013900;28;20130;-84
2022/08/07 11:27:20;;;;;;;0.88;0.20;;;24.70;99.90;;;;;;5010778;28;20098;-82
2022/08/07 11:30:02;;;;;;;0.25;0.10;;;24.00;99.90;;;;;;5013065;28;20121;-81
2022/08/07 11:32:49;;;;;;;0.63;0.10;;;23.90;99.90;;;;;;4999314;28;20036;-82
2022/08/07 11:35:21;;;;;;;1.20;0.22;;;23.50;99.90;;;;;;4997448;28;20304;-83
2022/08/07 11:38:12;;;;;;;0.90;0.28;;;24.20;99.90;;;;;;5020012;28;20041;-81
2022/08/07 11:40:55;;;;;;;0.80;0.20;;;24.40;99.90;;;;;;5017158;28;20411;-83
2022/08/07 11:43:27;;;;;;;1.20;0.20;;;24.30;99.90;;;;;;5018830;28;20025;-82
2022/08/07 11:46:20;;;;;;;0.68;0.20;;;24.50;99.90;;;;;;5016138;28;20034;-85
2022/08/07 11:49:00;;;;;;;0.60;0.20;;;25.30;99.90;;;;;;5018517;28;20033;-83
2022/08/07 11:51:46;;;;;;;0.90;0.20;;;25.70;99.90;;;;;;5016986;28;20447;-83
2022/08/07 11:54:18;;;;;;;0.30;0.10;;;25.60;99.90;;;;;;5018959;28;20048;-83
2022/08/07 11:57:00;;;;;;;0.30;0.03;;;25.90;99.90;;;;;;5018465;28;20026;-81
2022/08/07 11:59:58;;;;;;;0.43;0.10;;;26.20;99.90;;;;;;4999882;28;20025;-83
2022/08/07 12:02:29;;;;;;;0.30;0.10;;;26.60;99.90;;;;;;5001576;28;20429;-83
2022/08/07 12:05:27;;;;;;;0.98;0.20;;;27.10;99.90;;;;;;5011442;28;20587;-80
2022/08/07 12:07:59;;;;;;;0.50;0.20;;;26.20;99.90;;;;;;5016271;28;20033;-81
2022/08/07 12:10:40;;;;;;;0.70;0.10;;;26.30;99.90;;;;;;5020925;28;20037;-80
2022/08/07 12:13:27;;;;;;;0.55;0.20;;;26.40;99.90;;;;;;5031645;28;20034;-83
2022/08/07 12:16:02;;;;;;;0.50;0.20;;;26.20;99.90;;;;;;5018320;28;20040;-79
2022/08/07 12:18:49;;;;;;;0.65;0.10;;;26.50;99.90;;;;;;5024227;28;20057;-83
2022/08/07 12:21:40;;;;;;;1.02;0.20;;;26.70;99.90;;;;;;5023188;28;20069;-83
2022/08/07 12:24:14;;;;;;;0.50;0.20;;;26.60;99.90;;;;;;5017585;28;20029;-80
2022/08/07 12:26:57;;;;;;;0.90;0.30;;;25.90;99.90;;;;;;5018221;28;20057;-83
2022/08/07 12:29:44;;;;;;;1.38;0.30;;;25.30;99.90;;;;;;5035383;28;20053;-84
2022/08/07 12:32:19;;;;;;;1.13;0.40;;;25.30;99.90;;;;;;5001787;28;20022;-82
2022/08/07 12:34:46;;;;;;;0.63;0.20;;;24.60;99.90;;;;;;5001503;28;20303;-81
2022/08/07 12:37:14;;;;;;;1.30;0.40;;;24.30;99.90;;;;;;5033130;28;20045;-82
2022/08/07 12:39:43;;;;;;;0.82;0.30;;;23.70;99.90;;;;;;5051179;28;20052;-85
2022/08/07 12:42:10;;;;;;;2.33;0.40;;;23.50;99.90;;;;;;5046993;28;20024;-81
2022/08/07 12:44:40;;;;;;;1.15;0.40;;;23.90;99.90;;;;;;5041809;28;20323;-86
2022/08/07 12:47:19;;;;;;;0.73;0.30;;;24.10;99.90;;;;;;5039587;28;20068;-86
2022/08/07 12:50:01;;;;;;;1.23;0.30;;;24.30;99.90;;;;;;5056416;28;20401;-85
2022/08/07 12:52:43;;;;;;;1.50;0.30;;;24.40;99.90;;;;;;5045089;28;20083;-85
2022/08/07 12:55:20;;;;;;;0.80;0.28;;;24.60;99.90;;;;;;5048799;28;20040;-80
2022/08/07 12:57:47;;;;;;;1.55;0.20;;;25.30;99.90;;;;;;5046713;28;20653;-85
2022/08/07 13:00:13;;;;;;;1.05;0.20;;;25.70;99.90;;;;;;5028499;28;20021;-84
2022/08/07 13:02:57;;;;;;;1.70;0.40;;;25.30;99.90;;;;;;5034888;28;20032;-78
2022/08/07 13:05:54;;;;;;;1.13;0.40;;;25.10;99.90;;;;;;5041835;28;20171;-84
2022/08/07 13:08:30;;;;;;;1.10;0.30;;;25.10;99.90;;;;;;5040519;28;20032;-83
2022/08/07 13:11:32;;;;;;;0.68;0.30;;;24.80;99.90;;;;;;5041243;28;20024;-82
2022/08/07 13:14:36;;;;;;;1.00;0.40;;;25.10;99.90;;;;;;5060129;28;20530;-82
2022/08/07 13:17:10;;;;;;;0.50;0.20;;;25.20;99.90;;;;;;5035857;28;20041;-84
2022/08/07 13:20:04;;;;;;;0.82;0.30;;;25.60;99.90;;;;;;5045142;28;20487;-84
2022/08/07 13:22:46;;;;;;;1.20;0.30;;;24.90;99.90;;;;;;5048630;28;20436;-82
2022/08/07 13:25:33;;;;;;;1.38;0.50;;;25.10;99.90;;;;;;5025668;28;20131;-81
2022/08/07 13:28:04;;;;;;;0.60;0.20;;;25.40;99.90;;;;;;5039998;28;20036;-86
2022/08/07 13:30:31;;;;;;;1.75;0.20;;;25.50;99.90;;;;;;5040163;28;20039;-81